createdAt,value
2017-12-01T00:01:52.015Z,1.20
2017-12-01T00:04:20.436Z,1.30
2017-12-01T00:06:48.894Z,1.20
2017-12-01T00:09:17.367Z,1.20
2017-12-01T00:11:46.107Z,1.20
2017-12-01T00:16:50.075Z,1.20
2017-12-01T00:19:18.497Z,1.20
2017-12-01T00:21:46.912Z,1.20
2017-12-01T00:24:16.125Z,1.20
2017-12-01T00:26:44.501Z,1.20
2017-12-01T00:29:12.984Z,1.20
2017-12-01T00:31:41.767Z,1.20
2017-12-01T00:34:10.161Z,1.20
2017-12-01T00:36:38.581Z,1.30
2017-12-01T00:39:07.063Z,1.20
2017-12-01T00:41:35.497Z,1.20
2017-12-01T00:44:03.919Z,1.20
2017-12-01T00:46:32.455Z,1.20
2017-12-01T00:49:00.925Z,1.20
2017-12-01T00:51:29.355Z,1.20
2017-12-01T00:53:58.263Z,1.20
2017-12-01T00:56:26.694Z,1.20
2017-12-01T00:58:55.169Z,1.20
2017-12-01T01:01:23.660Z,1.20
2017-12-01T01:03:52.112Z,1.20
2017-12-01T01:06:21.372Z,1.30
2017-12-01T01:08:50.059Z,1.30
2017-12-01T01:11:18.527Z,1.20
2017-12-01T01:13:47.138Z,1.20
2017-12-01T01:16:15.739Z,1.30
2017-12-01T01:18:44.220Z,1.30
2017-12-01T01:21:13.481Z,1.30
2017-12-01T01:23:41.989Z,1.30
2017-12-01T01:26:10.396Z,1.30
2017-12-01T01:28:38.829Z,1.30
2017-12-01T01:31:07.841Z,1.30
2017-12-01T01:33:36.283Z,1.20
2017-12-01T01:36:06.129Z,1.20
2017-12-01T01:38:35.346Z,1.30
2017-12-01T01:41:04.590Z,1.30
2017-12-01T01:43:33.068Z,1.30
2017-12-01T01:46:01.726Z,1.30
2017-12-01T01:48:30.178Z,1.20
2017-12-01T01:50:58.624Z,1.20
2017-12-01T01:53:27.110Z,1.30
2017-12-01T01:55:55.997Z,1.30
2017-12-01T01:58:24.433Z,1.30
2017-12-01T02:00:52.945Z,1.20
2017-12-01T02:03:21.404Z,1.20
2017-12-01T02:05:49.828Z,1.20
2017-12-01T02:08:18.727Z,1.30
2017-12-01T02:10:47.178Z,1.30
2017-12-01T02:13:15.578Z,1.20
2017-12-01T02:15:46.460Z,1.30
2017-12-01T02:18:15.697Z,1.20
2017-12-01T02:20:44.194Z,1.20
2017-12-01T02:23:12.710Z,1.20
2017-12-01T02:25:41.939Z,1.20
2017-12-01T02:28:10.389Z,1.20
2017-12-01T02:30:39.693Z,1.30
2017-12-01T02:33:08.964Z,1.30
2017-12-01T02:35:37.408Z,1.30
2017-12-01T02:38:05.902Z,1.40
2017-12-01T02:40:34.350Z,1.30
2017-12-01T02:43:02.797Z,1.30
2017-12-01T02:45:31.797Z,1.30
2017-12-01T02:48:01.035Z,1.30
2017-12-01T02:50:29.484Z,1.30
2017-12-01T02:52:59.082Z,1.40
2017-12-01T02:55:28.299Z,1.40
2017-12-01T02:57:56.858Z,1.40
2017-12-01T03:00:25.560Z,1.30
2017-12-01T03:02:54.837Z,1.40
2017-12-01T03:05:23.294Z,1.40
2017-12-01T03:07:52.131Z,1.50
2017-12-01T03:10:21.424Z,1.40
2017-12-01T03:12:50.248Z,1.40
2017-12-01T03:15:18.845Z,1.40
2017-12-01T03:17:47.596Z,1.40
2017-12-01T03:20:16.855Z,1.40
2017-12-01T03:22:45.530Z,1.30
2017-12-01T03:25:14.878Z,1.30
2017-12-01T03:27:44.114Z,1.30
2017-12-01T03:30:12.715Z,1.20
2017-12-01T03:32:41.181Z,1.30
2017-12-01T03:35:09.777Z,1.30
2017-12-01T03:37:38.740Z,1.30
2017-12-01T03:40:07.911Z,1.30
2017-12-01T03:42:37.188Z,1.20
2017-12-01T03:45:05.710Z,1.20
2017-12-01T03:47:34.189Z,1.20
2017-12-01T03:50:03.438Z,1.30
2017-12-01T03:52:33.159Z,1.40
2017-12-01T03:55:01.609Z,1.30
2017-12-01T03:57:30.066Z,1.40
2017-12-01T03:59:58.904Z,1.40
2017-12-01T04:02:27.415Z,1.40
2017-12-01T04:04:56.632Z,1.40
2017-12-01T04:07:25.140Z,1.40
2017-12-01T04:09:53.608Z,1.40
2017-12-01T04:12:22.074Z,1.40
2017-12-01T04:14:50.852Z,1.50
2017-12-01T04:17:20.115Z,1.50
2017-12-01T04:19:48.742Z,1.50
2017-12-01T04:22:17.568Z,1.40
2017-12-01T04:24:46.045Z,1.30
2017-12-01T04:27:14.509Z,1.40
2017-12-01T04:29:43.603Z,1.50
2017-12-01T04:32:12.056Z,1.50
2017-12-01T04:34:40.549Z,1.50
2017-12-01T04:37:09.276Z,1.50
2017-12-01T04:39:37.740Z,1.60
2017-12-01T04:42:06.231Z,1.40
2017-12-01T04:44:34.719Z,1.40
2017-12-01T04:47:03.185Z,1.30
2017-12-01T04:49:31.682Z,1.30
2017-12-01T04:52:00.276Z,1.40
2017-12-01T04:54:28.721Z,1.50
2017-12-01T04:56:57.236Z,1.50
2017-12-01T04:59:26.862Z,1.50
2017-12-01T05:01:55.604Z,1.50
2017-12-01T05:04:24.100Z,1.40
2017-12-01T05:06:52.940Z,1.40
2017-12-01T05:09:22.154Z,1.50
2017-12-01T05:11:50.639Z,1.50
2017-12-01T05:14:19.192Z,1.50
2017-12-01T05:16:47.669Z,1.60
2017-12-01T05:19:16.120Z,1.60
2017-12-01T05:21:45.245Z,1.60
2017-12-01T05:24:14.508Z,1.60
2017-12-01T05:26:43.005Z,1.60
2017-12-01T05:29:11.928Z,1.60
2017-12-01T05:31:41.171Z,1.50
2017-12-01T05:34:09.643Z,1.50
2017-12-01T05:36:38.245Z,1.50
2017-12-01T05:39:06.795Z,1.40
2017-12-01T05:41:35.258Z,1.50
2017-12-01T05:44:04.614Z,1.60
2017-12-01T05:46:33.085Z,1.60
2017-12-01T05:49:01.520Z,1.70
2017-12-01T05:51:30.992Z,1.60
2017-12-01T05:53:59.450Z,1.50
2017-12-01T05:56:27.900Z,1.40
2017-12-01T05:58:56.527Z,1.50
2017-12-01T06:01:24.988Z,1.60
2017-12-01T06:03:54.415Z,1.60
2017-12-01T06:06:22.898Z,1.60
2017-12-01T06:08:51.366Z,1.60
2017-12-01T06:11:19.835Z,1.60
2017-12-01T06:13:48.417Z,1.60
2017-12-01T06:16:16.872Z,1.50
2017-12-01T06:18:46.099Z,1.50
2017-12-01T06:21:14.620Z,1.50
2017-12-01T06:23:43.730Z,1.50
2017-12-01T06:26:12.975Z,1.40
2017-12-01T06:28:41.655Z,1.40
2017-12-01T06:31:10.134Z,1.50
2017-12-01T06:33:38.678Z,1.40
2017-12-01T06:36:08.066Z,1.50
2017-12-01T06:38:36.566Z,1.40
2017-12-01T06:41:05.982Z,1.40
2017-12-01T06:43:34.506Z,1.40
2017-12-01T06:46:02.968Z,1.40
2017-12-01T06:48:31.432Z,1.50
2017-12-01T06:50:59.971Z,1.50
2017-12-01T06:53:28.444Z,1.50
2017-12-01T06:55:56.904Z,1.40
2017-12-01T06:58:25.520Z,1.40
2017-12-01T07:00:54.020Z,1.40
2017-12-01T07:03:22.553Z,1.40
2017-12-01T07:05:51.326Z,1.50
2017-12-01T07:08:20.644Z,1.40
2017-12-01T07:10:49.024Z,1.40
2017-12-01T07:13:17.551Z,1.40
2017-12-01T07:15:46.720Z,1.40
2017-12-01T07:18:15.138Z,1.40
2017-12-01T07:20:43.828Z,1.40
2017-12-01T07:23:13.023Z,1.40
2017-12-01T07:25:41.782Z,1.40
2017-12-01T07:28:10.491Z,1.50
2017-12-01T07:30:39.703Z,1.50
2017-12-01T07:33:08.141Z,1.50
2017-12-01T07:35:36.967Z,1.40
2017-12-01T07:38:05.441Z,1.40
2017-12-01T07:40:34.668Z,1.40
2017-12-01T07:43:04.163Z,1.40
2017-12-01T07:45:33.100Z,1.40
2017-12-01T07:48:01.525Z,1.30
2017-12-01T07:50:30.111Z,1.30
2017-12-01T07:52:58.748Z,1.30
2017-12-01T07:55:27.223Z,1.30
2017-12-01T07:57:55.783Z,1.40
2017-12-01T08:00:24.241Z,1.40
2017-12-01T08:02:52.702Z,1.40
2017-12-01T08:05:21.961Z,1.40
2017-12-01T08:07:50.620Z,1.40
2017-12-01T08:10:19.054Z,1.30
2017-12-01T08:12:47.681Z,1.30
2017-12-01T08:15:16.152Z,1.20
2017-12-01T08:17:44.644Z,1.20
2017-12-01T08:20:19.205Z,1.20
2017-12-01T08:22:52.584Z,1.20
2017-12-01T08:25:36.846Z,1.20
2017-12-01T08:28:05.750Z,1.20
2017-12-01T08:30:34.267Z,1.10
2017-12-01T08:33:03.682Z,1.10
2017-12-01T08:35:32.448Z,1.10
2017-12-01T08:38:01.653Z,1.20
2017-12-01T08:40:30.113Z,1.10
2017-12-01T08:42:58.595Z,1.10
2017-12-01T08:45:27.050Z,1.10
2017-12-01T08:47:55.607Z,1.10
2017-12-01T08:50:24.062Z,1.10
2017-12-01T08:52:52.495Z,1.20
2017-12-01T08:55:21.136Z,1.20
2017-12-01T08:57:49.558Z,1.30
2017-12-01T09:00:18.025Z,1.40
2017-12-01T09:02:46.566Z,1.30
2017-12-01T09:05:15.041Z,1.30
2017-12-01T09:07:44.289Z,1.40
2017-12-01T09:10:12.876Z,1.40
2017-12-01T09:12:41.305Z,1.40
2017-12-01T09:15:10.563Z,1.50
2017-12-01T09:17:39.376Z,1.50
2017-12-01T09:20:08.005Z,1.50
2017-12-01T09:22:36.453Z,1.50
2017-12-01T09:25:06.041Z,1.70
2017-12-01T09:27:34.499Z,1.70
2017-12-01T09:30:03.191Z,1.60
2017-12-01T09:32:31.841Z,1.80
2017-12-01T09:35:00.333Z,1.70
2017-12-01T09:37:28.814Z,1.70
2017-12-01T09:39:57.472Z,1.80
2017-12-01T09:42:26.005Z,2.10
2017-12-01T09:44:54.645Z,2.10
2017-12-01T09:47:23.724Z,2.20
2017-12-01T09:49:53.099Z,1.90
2017-12-01T09:52:21.519Z,1.90
2017-12-01T09:54:51.010Z,1.90
2017-12-01T09:57:21.155Z,2.00
2017-12-01T09:59:49.613Z,2.00
2017-12-01T10:02:18.850Z,1.80
2017-12-01T10:04:47.335Z,1.70
2017-12-01T10:07:15.779Z,1.60
2017-12-01T10:09:44.678Z,1.40
2017-12-01T10:12:13.089Z,1.60
2017-12-01T10:14:41.529Z,1.80
2017-12-01T10:17:10.932Z,1.50
2017-12-01T10:19:40.864Z,1.60
2017-12-01T10:22:09.335Z,1.60
2017-12-01T10:24:37.980Z,1.80
2017-12-01T10:27:07.386Z,1.90
2017-12-01T10:29:37.290Z,1.90
2017-12-01T10:32:06.328Z,1.90
2017-12-01T10:34:36.135Z,1.90
2017-12-01T10:37:05.512Z,1.90
2017-12-01T10:39:34.149Z,1.90
2017-12-01T10:42:03.458Z,1.80
2017-12-01T10:44:31.986Z,1.70
2017-12-01T10:47:00.849Z,1.70
2017-12-01T10:49:29.284Z,1.80
2017-12-01T10:51:57.739Z,1.80
2017-12-01T10:54:27.484Z,1.90
2017-12-01T10:56:55.895Z,1.90
2017-12-01T10:59:24.481Z,1.90
2017-12-01T11:01:53.231Z,1.90
2017-12-01T11:04:21.654Z,1.90
2017-12-01T11:06:50.103Z,1.90
2017-12-01T11:09:19.482Z,1.90
2017-12-01T11:11:47.951Z,1.80
2017-12-01T11:14:16.353Z,1.90
2017-12-01T11:16:44.843Z,1.80
2017-12-01T11:19:13.287Z,1.70
2017-12-01T11:21:42.501Z,1.80
2017-12-01T11:24:11.195Z,1.80
2017-12-01T11:26:39.665Z,1.80
2017-12-01T11:29:08.884Z,1.70
2017-12-01T11:31:37.384Z,1.70
2017-12-01T11:34:05.938Z,1.80
2017-12-01T11:36:34.452Z,1.80
2017-12-01T11:39:02.997Z,2.00
2017-12-01T11:41:31.757Z,2.10
2017-12-01T11:44:00.215Z,2.10
2017-12-01T11:46:28.852Z,2.20
2017-12-01T11:48:57.440Z,2.30
2017-12-01T11:51:26.737Z,2.30
2017-12-01T11:53:55.239Z,2.30
2017-12-01T11:56:23.824Z,2.40
2017-12-01T11:58:53.096Z,2.30
2017-12-01T12:01:24.972Z,2.10
2017-12-01T12:03:54.151Z,2.20
2017-12-01T12:06:22.655Z,2.10
2017-12-01T12:08:51.404Z,2.20
2017-12-01T12:11:20.681Z,2.00
2017-12-01T12:13:53.092Z,2.10
2017-12-01T12:16:21.597Z,2.10
2017-12-01T12:18:51.999Z,2.10
2017-12-01T12:21:20.593Z,2.00
2017-12-01T12:23:49.982Z,2.00
2017-12-01T12:26:18.530Z,2.00
2017-12-01T12:28:47.171Z,2.10
2017-12-01T12:31:15.673Z,2.00
2017-12-01T12:33:44.175Z,2.10
2017-12-01T12:36:13.818Z,2.10
2017-12-01T12:38:43.108Z,2.10
2017-12-01T12:41:13.254Z,2.00
2017-12-01T12:43:42.853Z,2.00
2017-12-01T12:46:11.330Z,2.10
2017-12-01T12:48:40.381Z,2.20
2017-12-01T12:51:08.917Z,2.10
2017-12-01T12:53:38.352Z,2.10
2017-12-01T12:56:06.827Z,2.10
2017-12-01T12:58:35.576Z,2.10
2017-12-01T13:01:06.671Z,2.20
2017-12-01T13:03:35.427Z,2.20
2017-12-01T13:06:04.127Z,2.30
2017-12-01T13:08:32.683Z,2.30
2017-12-01T13:11:01.197Z,2.10
2017-12-01T13:13:29.797Z,2.10
2017-12-01T13:15:58.305Z,1.90
2017-12-01T13:18:27.364Z,2.00
2017-12-01T13:20:56.675Z,2.00
2017-12-01T13:23:25.953Z,2.10
2017-12-01T13:25:54.678Z,2.10
2017-12-01T13:28:24.143Z,2.10
2017-12-01T13:30:52.673Z,2.10
2017-12-01T13:33:21.848Z,2.10
2017-12-01T13:35:50.731Z,2.10
2017-12-01T13:38:19.549Z,2.20
2017-12-01T13:40:48.847Z,2.20
2017-12-01T13:43:18.881Z,2.10
2017-12-01T13:45:48.120Z,2.20
2017-12-01T13:48:16.605Z,2.10
2017-12-01T13:50:45.377Z,2.30
2017-12-01T13:53:13.893Z,2.20
2017-12-01T13:55:42.461Z,2.10
2017-12-01T13:58:11.034Z,2.10
2017-12-01T14:00:39.520Z,2.10
2017-12-01T14:03:07.968Z,2.20
2017-12-01T14:05:37.562Z,2.30
2017-12-01T14:08:05.999Z,2.40
2017-12-01T14:10:34.417Z,2.30
2017-12-01T14:13:03.779Z,2.30
2017-12-01T14:15:32.416Z,2.30
2017-12-01T14:18:01.102Z,2.30
2017-12-01T14:20:29.614Z,2.30
2017-12-01T14:22:58.021Z,2.30
2017-12-01T14:25:26.436Z,2.60
2017-12-01T14:27:55.801Z,2.40
2017-12-01T14:30:24.256Z,2.50
2017-12-01T14:32:52.688Z,2.50
2017-12-01T14:35:22.045Z,2.60
2017-12-01T14:37:51.265Z,2.60
2017-12-01T14:40:20.893Z,2.60
2017-12-01T14:42:49.492Z,2.70
2017-12-01T14:45:19.237Z,2.50
2017-12-01T14:47:47.689Z,2.50
2017-12-01T14:50:16.910Z,2.50
2017-12-01T14:52:45.318Z,2.40
2017-12-01T14:55:13.709Z,2.60
2017-12-01T14:57:43.868Z,2.60
2017-12-01T15:00:12.492Z,2.60
2017-12-01T15:02:40.935Z,2.50
2017-12-01T15:05:10.947Z,2.30
2017-12-01T15:07:39.378Z,2.20
2017-12-01T15:10:07.809Z,2.10
2017-12-01T15:12:36.408Z,2.20
2017-12-01T15:15:04.829Z,2.20
2017-12-01T15:17:33.293Z,2.20
2017-12-01T15:20:01.958Z,2.20
2017-12-01T15:22:30.380Z,2.10
2017-12-01T15:24:58.800Z,2.10
2017-12-01T15:27:27.569Z,2.10
2017-12-01T15:29:57.132Z,2.20
2017-12-01T15:32:25.586Z,2.10
2017-12-01T15:34:54.339Z,2.20
2017-12-01T15:37:23.574Z,2.20
2017-12-01T15:39:53.000Z,2.20
2017-12-01T15:42:21.978Z,2.20
2017-12-01T15:44:50.393Z,2.20
2017-12-01T15:47:18.852Z,2.10
2017-12-01T15:49:47.529Z,2.10
2017-12-01T15:52:16.023Z,2.10
2017-12-01T15:54:44.797Z,2.10
2017-12-01T15:57:13.315Z,2.10
2017-12-01T15:59:41.756Z,2.00
2017-12-01T16:02:10.221Z,2.00
2017-12-01T16:04:38.893Z,1.80
2017-12-01T16:07:07.426Z,1.80
2017-12-01T16:09:35.865Z,1.80
2017-12-01T16:12:05.259Z,1.70
2017-12-01T16:14:33.749Z,1.50
2017-12-01T16:17:02.230Z,1.30
2017-12-01T16:19:30.880Z,1.20
2017-12-01T16:21:59.329Z,1.10
2017-12-01T16:24:27.803Z,1.10
2017-12-01T16:26:56.393Z,1.10
2017-12-01T16:29:24.880Z,1.10
2017-12-01T16:31:53.498Z,1.10
2017-12-01T16:34:22.918Z,1.20
2017-12-01T16:36:52.169Z,1.30
2017-12-01T16:39:20.656Z,1.30
2017-12-01T16:44:25.098Z,1.00
2017-12-01T16:46:53.640Z,1.00
2017-12-01T16:49:22.101Z,0.90
2017-12-01T16:51:50.546Z,1.10
2017-12-01T16:54:19.280Z,1.10
2017-12-01T16:56:47.820Z,1.10
2017-12-01T16:59:16.296Z,1.10
2017-12-01T17:01:45.017Z,1.10
2017-12-01T17:04:13.504Z,1.00
2017-12-01T17:06:41.989Z,1.10
2017-12-01T17:09:10.650Z,1.10
2017-12-01T17:11:39.893Z,1.10
2017-12-01T17:14:08.381Z,1.10
2017-12-01T17:16:37.168Z,1.10
2017-12-01T17:19:05.648Z,1.00
2017-12-01T17:21:34.153Z,1.20
2017-12-01T17:24:02.909Z,1.00
2017-12-01T17:26:31.473Z,1.10
2017-12-01T17:28:59.969Z,1.10
2017-12-01T17:31:28.536Z,1.20
2017-12-01T17:33:57.083Z,1.10
2017-12-01T17:36:25.574Z,1.10
2017-12-01T17:38:54.404Z,1.10
2017-12-01T17:41:22.958Z,1.10
2017-12-01T17:43:51.427Z,1.00
2017-12-01T17:46:21.143Z,1.00
2017-12-01T17:48:50.506Z,1.10
2017-12-01T17:51:19.063Z,1.10
2017-12-01T17:53:47.738Z,1.10
2017-12-01T17:56:16.205Z,1.10
2017-12-01T17:58:44.832Z,1.10
2017-12-01T18:01:13.605Z,1.10
2017-12-01T18:03:42.110Z,1.20
2017-12-01T18:06:10.604Z,1.00
2017-12-01T18:08:39.377Z,1.00
2017-12-01T18:11:08.684Z,1.00
2017-12-01T18:13:37.137Z,1.00
2017-12-01T18:16:06.570Z,1.40
2017-12-01T18:18:35.114Z,1.70
2017-12-01T18:21:03.587Z,1.20
2017-12-01T18:23:32.772Z,1.50
2017-12-01T18:26:01.257Z,1.40
2017-12-01T18:28:29.723Z,1.10
2017-12-01T18:30:59.149Z,1.10
2017-12-01T18:33:27.618Z,1.10
2017-12-01T18:35:56.885Z,1.00
2017-12-01T18:38:25.699Z,1.00
2017-12-01T18:40:54.183Z,1.00
2017-12-01T18:43:23.431Z,0.90
2017-12-01T18:45:51.952Z,0.90
2017-12-01T18:48:21.672Z,1.00
2017-12-01T18:50:50.914Z,1.00
2017-12-01T18:53:19.567Z,1.00
2017-12-01T18:55:48.046Z,1.10
2017-12-01T18:58:16.521Z,1.10
2017-12-01T19:00:45.816Z,1.00
2017-12-01T19:03:14.357Z,1.00
2017-12-01T19:05:42.839Z,1.10
2017-12-01T19:08:11.669Z,1.00
2017-12-01T19:10:40.925Z,1.00
2017-12-01T19:13:09.774Z,0.90
2017-12-01T19:15:38.456Z,0.90
2017-12-01T19:18:06.926Z,1.00
2017-12-01T19:20:36.288Z,1.10
2017-12-01T19:23:05.021Z,1.10
2017-12-01T19:25:33.599Z,1.10
2017-12-01T19:28:02.804Z,1.10
2017-12-01T19:30:31.652Z,1.10
2017-12-01T19:33:00.156Z,1.10
2017-12-01T19:35:29.431Z,1.10
2017-12-01T19:37:58.214Z,1.10
2017-12-01T19:40:27.362Z,1.10
2017-12-01T19:42:55.826Z,1.10
2017-12-01T19:45:25.152Z,1.10
2017-12-01T19:47:54.382Z,1.20
2017-12-01T19:50:23.225Z,1.20
2017-12-01T19:52:51.815Z,1.20
2017-12-01T19:55:20.278Z,1.20
2017-12-01T19:57:49.526Z,1.10
2017-12-01T20:00:18.968Z,1.20
2017-12-01T20:02:47.796Z,1.20
2017-12-01T20:05:16.249Z,1.20
2017-12-01T20:07:46.031Z,1.20
2017-12-01T20:10:14.509Z,1.20
2017-12-01T20:12:43.028Z,1.30
2017-12-01T20:15:12.342Z,1.20
2017-12-01T20:17:40.888Z,1.20
2017-12-01T20:20:09.368Z,1.30
2017-12-01T20:22:37.882Z,1.30
2017-12-01T20:25:06.360Z,1.30
2017-12-01T20:27:34.887Z,1.30
2017-12-01T20:30:03.498Z,1.30
2017-12-01T20:32:32.041Z,1.30
2017-12-01T20:35:00.550Z,1.30
2017-12-01T20:37:29.251Z,1.40
2017-12-01T20:39:57.761Z,1.30
2017-12-01T20:42:27.073Z,1.40
2017-12-01T20:44:55.645Z,1.40
2017-12-01T20:47:24.123Z,1.40
2017-12-01T20:49:53.316Z,1.30
2017-12-01T20:52:23.042Z,1.40
2017-12-01T20:54:51.475Z,1.30
2017-12-01T20:57:19.979Z,1.50
2017-12-01T20:59:48.706Z,1.40
2017-12-01T21:02:17.959Z,1.40
2017-12-01T21:04:47.234Z,1.30
2017-12-01T21:07:15.999Z,1.30
2017-12-01T21:09:44.505Z,1.20
2017-12-01T21:12:12.956Z,1.20
2017-12-01T21:14:41.634Z,1.30
2017-12-01T21:17:10.212Z,1.20
2017-12-01T21:19:38.688Z,1.30
2017-12-01T21:22:07.480Z,1.20
2017-12-01T21:24:35.956Z,1.10
2017-12-01T21:27:04.475Z,1.00
2017-12-01T21:29:33.202Z,1.10
2017-12-01T21:32:02.434Z,1.00
2017-12-01T21:34:30.926Z,1.00
2017-12-01T21:37:00.078Z,0.90
2017-12-01T21:39:29.352Z,0.90
2017-12-01T21:41:58.164Z,0.90
2017-12-01T21:44:27.485Z,0.80
2017-12-01T21:46:55.948Z,0.80
2017-12-01T21:49:25.119Z,0.80
2017-12-01T21:51:54.520Z,0.80
2017-12-01T21:54:23.151Z,0.80
2017-12-01T21:56:51.602Z,0.80
2017-12-01T21:59:20.102Z,0.80
2017-12-01T22:01:49.298Z,0.70
2017-12-01T22:04:18.492Z,0.70
2017-12-01T22:06:48.108Z,0.70
2017-12-01T22:09:17.357Z,0.70
2017-12-01T22:11:45.764Z,0.70
2017-12-01T22:14:14.392Z,0.70
2017-12-01T22:16:42.890Z,0.70
2017-12-01T22:19:11.351Z,0.70
2017-12-01T22:21:39.984Z,0.70
2017-12-01T22:24:08.443Z,0.60
2017-12-01T22:26:36.845Z,0.60
2017-12-01T22:29:05.558Z,0.60
2017-12-01T22:31:35.065Z,0.50
2017-12-01T22:34:04.305Z,0.50
2017-12-01T22:36:33.168Z,0.50
2017-12-01T22:39:01.633Z,0.50
2017-12-01T22:41:30.857Z,0.60
2017-12-01T22:43:59.922Z,0.60
2017-12-01T22:46:29.140Z,0.60
2017-12-01T22:48:57.650Z,0.60
2017-12-01T22:51:26.147Z,0.50
2017-12-01T22:53:54.817Z,0.60
2017-12-01T22:56:23.624Z,0.50
2017-12-01T22:58:52.126Z,0.50
2017-12-01T23:01:20.584Z,0.50
2017-12-01T23:03:49.044Z,0.40
2017-12-01T23:06:17.993Z,0.40
2017-12-01T23:08:47.255Z,0.50
2017-12-01T23:11:15.783Z,0.40
2017-12-01T23:13:44.408Z,0.50
2017-12-01T23:16:12.901Z,0.40
2017-12-01T23:18:41.320Z,0.40
2017-12-01T23:21:10.940Z,0.40
2017-12-01T23:23:39.360Z,0.40
2017-12-01T23:26:07.806Z,0.40
2017-12-01T23:28:36.315Z,0.40
2017-12-01T23:31:04.766Z,0.40
2017-12-01T23:33:33.312Z,0.40
2017-12-01T23:36:02.034Z,0.40
2017-12-01T23:38:30.460Z,0.30
2017-12-01T23:40:58.888Z,0.40
2017-12-01T23:43:27.379Z,0.30
2017-12-01T23:45:55.965Z,0.40
2017-12-01T23:48:24.437Z,0.30
2017-12-01T23:50:53.932Z,0.30
2017-12-01T23:53:23.136Z,0.30
2017-12-01T23:55:52.381Z,0.20
2017-12-01T23:58:22.136Z,0.20
